• Join FlightAware (Why Join?)
  • Login
  • US Flag 
07:09PM EDT


 

Airport Tracker/Info


-or-


 

Live Flight TrackerFlight Track Log ✈ CPZ5734 ✈ 01-Oct-2013 ✈ KDTW - KSAT

Flight Track Log - Related Links

Times and Time Zones

All times are in EDT time to prevent confusion due to time zone crossing. See the CPZ5734 flight status page for this flight to view local times or setup timezone preferences in your user account.

Time Position Orientation Groundspeed Altitude Reporting Facility
EDT Latitude Longitude Course Direction KTS MPH feet Rate Location/Type
12:15PM 42.2039 -83.3697 190° South 152 175 1,300  Level Cleveland Center
12:16PM 42.1347 -83.4217 209° Southwest 207 238 4,200 1,800 Climbing Cleveland Center
12:16PM 42.1333 -83.4219 188° South 202 232 4,300 2,100 Climbing Cleveland Center
12:17PM 42.0781 -83.4669 211° Southwest 226 260 6,600 2,340 Climbing Cleveland Center
12:18PM 41.8920 -83.8419 209° Southwest  Level Estimated
12:19PM 41.8116 -83.9633 210° Southwest  Level Estimated
12:19PM 42.0117 -83.5211 211° Southwest 266 306 9,200  Level Cleveland Center
12:20PM 41.6923 -83.9906 190° South  Level FlightAware Approximate
12:20PM 41.9406 -83.5778 211° Southwest 291 335 10,900  Level Cleveland Center
12:21PM 41.8586 -83.6456 212° Southwest 342 394 13,000 1,800 Climbing Cleveland Center
12:22PM 41.7789 -83.7217 215° Southwest 353 406 14,700 2,100 Climbing Cleveland Center
12:23PM 41.7089 -83.8539 235° Southwest 361 415 17,400 2,100 Climbing Cleveland Center
12:24PM 41.6497 -83.9628 234° Southwest 363 418 19,100 1,500 Climbing Cleveland Center
12:25PM 41.5892 -84.0767 235° Southwest 374 430 20,600 1,440 Climbing Cleveland Center
12:26PM 41.5258 -84.1933 234° Southwest 386 444 22,100 1,500 Climbing Cleveland Center
12:27PM 41.4539 -84.3283 235° Southwest 393 452 23,700 1,380 Climbing Cleveland Center
12:28PM 41.3872 -84.4489 234° Southwest 400 460 25,000 1,080 Climbing Cleveland Center
12:29PM 41.3206 -84.5706 234° Southwest 405 466 26,000 960 Climbing Cleveland Center
12:30PM 41.2772 -84.7094 247° West 403 464 27,000 960 Climbing Cleveland Center
12:31PM 41.2494 -84.8594 256° West 412 474 28,000 900 Climbing Cleveland Center
12:32PM 41.2211 -85.0089 256° West 415 478 28,900 960 Climbing Cleveland Center
12:33PM 41.1931 -85.1600 256° West 418 481 30,000 960 Climbing Cleveland Center
12:34PM 41.1636 -85.3097 255° West 418 481 31,000 960 Climbing Cleveland Center
12:35PM 41.1300 -85.4881 256° West 414 476 32,100 840 Climbing Cleveland Center
12:36PM 41.1017 -85.6361 256° West 413 475 32,800 840 Climbing Cleveland Center
12:37PM 41.0728 -85.7844 256° West 414 476 33,900 540 Climbing Cleveland Center
12:38PM 41.0439 -85.9272 255° West 405 466 34,000  Climbing Cleveland Center
12:39PM 41.0158 -86.0722 256° West 405 466 34,000  Level Cleveland Center
12:40PM 41.0036 -86.1347 255° West 404 465 34,000  Level Kansas City Center
12:40PM 40.9750 -86.2739 255° West 407 468 34,000  Level Chicago Center
12:42PM 40.9453 -86.4167 255° West 406 467 34,000  Level Chicago Center
12:43PM 40.9161 -86.5644 255° West 410 472 34,000 240 Level Chicago Center
12:44PM 40.8869 -86.7139 256° West 419 482 34,500 720 Climbing Chicago Center
12:45PM 40.8558 -86.8656 255° West 415 478 35,500 720 Climbing Chicago Center
12:46PM 40.8281 -87.0072 256° West 403 464 36,000 240 Climbing Chicago Center
12:47PM 40.7914 -87.1825 255° West 411 473 36,000  Level Chicago Center
12:48PM 40.7600 -87.3269 254° West 411 473 36,000  Level Chicago Center
12:49PM 40.7303 -87.4714 255° West 409 471 36,000  Level Chicago Center
12:50PM 40.6997 -87.6158 254° West 410 472 36,000  Level Chicago Center
12:51PM 40.6689 -87.7603 254° West 411 473 36,000  Level Chicago Center
12:52PM 40.6383 -87.9028 254° West 406 467 36,000  Level Chicago Center
12:53PM 40.6019 -88.0744 254° West 407 468 36,000  Level Chicago Center
12:54PM 40.5522 -88.2058 244° Southwest 409 471 36,000  Level Chicago Center
12:55PM 40.4742 -88.3164 227° Southwest 416 479 36,000  Level Chicago Center
12:56PM 40.3953 -88.4256 227° Southwest 414 476 36,000  Level Chicago Center
12:57PM 40.3181 -88.5328 227° Southwest 416 479 36,000  Level Chicago Center
12:58PM 40.2375 -88.6419 226° Southwest 416 479 36,000  Level Chicago Center
12:59PM 40.1394 -88.7764 226° Southwest 423 487 36,000  Level Chicago Center
01:00PM 40.0586 -88.8875 226° Southwest 423 487 36,000  Level Chicago Center
01:01PM 39.9761 -88.9989 226° Southwest 423 487 36,000  Level Chicago Center
01:02PM 39.8792 -89.1292 226° Southwest 421 484 36,000  Level Kansas City Center
01:03PM 39.7978 -89.2406 226° Southwest 422 486 36,000  Level Kansas City Center
01:04PM 39.7169 -89.3500 226° Southwest 420 483 36,000  Level Kansas City Center
01:05PM 39.6322 -89.4636 226° Southwest 423 487 36,000  Level Kansas City Center
01:07PM 39.5500 -89.5722 226° Southwest 424 488 36,000  Level Kansas City Center
01:08PM 39.4569 -89.7083 229° Southwest 421 484 36,000  Level Kansas City Center
01:09PM 39.3814 -89.8239 230° Southwest 422 486 36,000  Level Kansas City Center
01:10PM 39.3042 -89.9375 229° Southwest 423 487 36,000  Level Kansas City Center
01:11PM 39.2264 -90.0506 228° Southwest 423 487 36,000  Level Kansas City Center
01:12PM 39.1483 -90.1633 228° Southwest 423 487 36,000  Level Kansas City Center
01:13PM 39.0711 -90.2769 229° Southwest 424 488 36,000  Level Kansas City Center
01:14PM 38.9792 -90.4119 229° Southwest 422 486 36,000  Level Kansas City Center
01:15PM 38.9003 -90.5217 227° Southwest 420 483 36,000  Level Kansas City Center
01:16PM 38.8214 -90.6381 229° Southwest 433 498 36,000  Level Kansas City Center
01:17PM 38.7442 -90.7450 227° Southwest 431 496 36,000  Level Kansas City Center
01:18PM 38.6342 -90.8575 219° Southwest 428 493 36,000  Level Kansas City Center
01:19PM 38.5425 -90.9511 219° Southwest 427 491 36,000  Level Kansas City Center
01:20PM 38.4503 -91.0456 219° Southwest 427 491 36,000  Level Kansas City Center
01:21PM 38.3572 -91.1408 219° Southwest 430 495 36,000  Level Kansas City Center
01:22PM 38.2575 -91.2256 214° Southwest 431 496 36,000  Level Kansas City Center
01:23PM 38.1389 -91.3067 208° Southwest 434 499 36,000  Level Kansas City Center
01:24PM 38.0342 -91.3831 210° Southwest 434 499 36,000  Level Kansas City Center
01:25PM 37.9300 -91.4592 210° Southwest 431 496 36,000  Level Kansas City Center
01:26PM 37.8353 -91.5564 219° Southwest 431 496 36,000  Level Kansas City Center
01:27PM 37.7206 -91.6728 219° Southwest 435 501 36,000  Level Kansas City Center
01:28PM 37.6247 -91.7714 219° Southwest 438 504 36,000  Level Kansas City Center
01:29PM 37.5292 -91.8678 219° Southwest 437 503 36,000  Level Kansas City Center
01:30PM 37.4333 -91.9667 219° Southwest 439 505 36,000  Level Kansas City Center
01:31PM 37.3378 -92.0633 219° Southwest 438 504 36,000  Level Kansas City Center
01:32PM 37.2414 -92.1592 218° Southwest 438 504 36,000  Level Kansas City Center
01:33PM 37.1453 -92.2547 218° Southwest 439 505 36,000  Level Kansas City Center
01:34PM 37.0492 -92.3503 218° Southwest 439 505 36,000  Level Kansas City Center
01:36PM 36.9331 -92.4661 219° Southwest 443 510 36,000  Level Kansas City Center
01:37PM 36.8353 -92.5608 218° Southwest 442 509 36,000  Level Kansas City Center
01:38PM 36.7383 -92.6575 219° Southwest 444 511 36,000  Level Kansas City Center
01:39PM 36.6406 -92.7531 218° Southwest 445 512 36,000  Level Kansas City Center
01:40PM 36.5419 -92.8481 218° Southwest 446 513 36,000  Level Kansas City Center
01:41PM 36.4439 -92.9431 218° Southwest 446 513 36,000  Level Kansas City Center
01:42PM 36.3450 -93.0397 218° Southwest 449 517 36,000  Level Kansas City Center
01:43PM 36.2189 -93.1586 217° Southwest 459 528 36,000  Level Memphis Center
01:44PM 36.1231 -93.2528 218° Southwest 459 528 36,000  Level Memphis Center
01:45PM 36.0228 -93.3494 218° Southwest 454 522 36,000  Level Memphis Center
01:46PM 35.9244 -93.4433 218° Southwest 448 516 36,000  Level Memphis Center
01:47PM 35.8283 -93.5394 219° Southwest 454 522 36,000  Level Memphis Center
01:48PM 35.7236 -93.6353 217° Southwest 454 522 36,000  Level Memphis Center
01:49PM 35.6400 -93.7189 219° Southwest 454 522 36,000  Level Memphis Center
01:50PM 35.5375 -93.8117 216° Southwest 454 522 36,000  Level Memphis Center
01:51PM 35.4389 -93.9069 218° Southwest 454 522 36,000  Level Memphis Center
01:52PM 35.3381 -94.0019 218° Southwest 454 522 36,000  Level Memphis Center
01:53PM 35.2392 -94.0967 218° Southwest 454 522 36,000  Level Memphis Center
01:55PM 34.9989 -94.3214 217° Southwest 454 522 36,000  Level Fort Worth Center
01:56PM 34.8969 -94.4186 218° Southwest 464 534 36,000  Level Fort Worth Center
01:57PM 34.8092 -94.5003 217° Southwest 459 528 36,000  Level Fort Worth Center
01:58PM 34.7092 -94.5894 216° Southwest 459 528 36,000  Level Fort Worth Center
01:59PM 34.6111 -94.6811 218° Southwest 459 528 36,000  Level Fort Worth Center
02:00PM 34.5089 -94.7775 218° Southwest 459 528 36,000  Level Fort Worth Center
02:01PM 34.4064 -94.8661 216° Southwest 459 528 36,000  Level Fort Worth Center
02:02PM 34.3081 -94.9597 218° Southwest 459 528 36,000  Level Fort Worth Center
02:03PM 34.2075 -95.0503 217° Southwest 459 528 36,000  Level Fort Worth Center
02:04PM 34.1028 -95.1436 216° Southwest 459 528 36,000  Level Fort Worth Center
02:05PM 34.0000 -95.2364 217° Southwest 465 535 36,000  Level Fort Worth Center
02:06PM 33.8972 -95.3292 217° Southwest 465 535 36,000  Level Fort Worth Center
02:07PM 33.7944 -95.4214 217° Southwest 465 535 36,000  Level Fort Worth Center
02:08PM 33.6936 -95.5111 217° Southwest 465 535 36,000  Level Fort Worth Center
02:09PM 33.5822 -95.6083 216° Southwest 465 535 36,000  Level Fort Worth Center
02:10PM 33.4875 -95.6925 217° Southwest 467 537 36,000  Level Fort Worth Center
02:11PM 33.3844 -95.7814 216° Southwest 467 537 36,000  Level Fort Worth Center
02:12PM 33.2728 -95.8806 217° Southwest 467 537 36,000  Level Fort Worth Center
02:13PM 33.1694 -95.9717 216° Southwest 467 537 36,000  Level Fort Worth Center
02:14PM 33.0683 -96.0625 217° Southwest 467 537 36,000  Level Fort Worth Center
02:15PM 32.9647 -96.1506 215° Southwest 467 537 36,000  Level Fort Worth Center
02:16PM 32.8614 -96.2411 216° Southwest 467 537 36,000  Level Fort Worth Center
02:17PM 32.7556 -96.3314 216° Southwest 467 537 36,000  Level Fort Worth Center
02:18PM 32.6561 -96.4214 217° Southwest 467 537 36,000  Level Fort Worth Center
02:19PM 32.5525 -96.5089 215° Southwest 467 537 36,000  Level Fort Worth Center
02:20PM 32.4675 -96.5811 216° Southwest 467 537 36,000  Level Fort Worth Center
02:21PM 32.3572 -96.6781 217° Southwest 467 537 36,000  Level Fort Worth Center
02:22PM 32.2575 -96.7647 216° Southwest 467 537 36,000  Level Fort Worth Center
02:23PM 32.1558 -96.8514 216° Southwest 462 532 36,000  Level Fort Worth Center
02:24PM 32.0517 -96.9331 214° Southwest 457 526 36,000  Level Fort Worth Center
02:25PM 31.9244 -96.9800 197° South 437 503 36,000  Level Fort Worth Center
02:26PM 31.8464 -97.0017 193° South 447 514 36,000  Level Houston Center
02:27PM 31.7233 -97.0428 196° South 454 522 36,000  Level Houston Center
02:28PM 31.6014 -97.0814 195° South 450 518 36,000  Level Houston Center
02:29PM 31.4794 -97.1217 196° South 450 518 36,000  Level Houston Center
02:30PM 31.3564 -97.1617 196° South 453 521 36,000  Level Houston Center
02:31PM 31.2333 -97.2019 196° South 454 522 36,000  Level Houston Center
02:32PM 31.1136 -97.2467 198° South 451 519 36,000  Level Houston Center
02:33PM 30.9833 -97.2958 198° South 456 525 36,000  Level Houston Center
02:34PM 30.8633 -97.3433 199° South 456 525 36,000 -1,020 Level Houston Center
02:35PM 30.7344 -97.3931 198° South 458 527 34,000 -2,400 Descending Houston Center
02:36PM 30.6139 -97.4400 199° South 454 522 31,100 -2,880 Descending Houston Center
02:37PM 30.4908 -97.4875 198° South 459 528 28,100 -3,120 Descending Houston Center
02:38PM 30.3547 -97.5486 201° Southwest 444 511 24,700 -2,340 Descending Houston Center
02:39PM 30.2522 -97.6197 211° Southwest 428 493 23,300 -2,280 Descending Houston Center
02:40PM 30.1497 -97.6883 210° Southwest 422 486 20,100 -3,240 Descending Houston Center
02:40PM 30.1214 -97.7100 213° Southwest 418 481 19,200 -3,480 Descending Houston Center
02:41PM 30.0978 -97.7253 209° Southwest 415 478 18,500 -2,940 Descending Houston Center
02:41PM 30.0444 -97.7611 210° Southwest 413 475 16,900 -2,820 Descending Houston Center
02:41PM 30.0150 -97.7817 211° Southwest 408 470 16,000 -2,820 Descending Houston Center
02:42PM 29.9517 -97.8256 211° Southwest 390 449 14,000 -2,640 Descending Houston Center
02:43PM 29.9125 -97.8528 211° Southwest 364 419 13,100 -1,260 Descending Houston Center
02:43PM 29.8789 -97.9044 233° Southwest 325 374 12,700 -900 Descending Houston Center
02:43PM 29.8678 -97.9331 246° West 307 353 12,300 -1,500 Descending Houston Center
02:44PM 29.8428 -97.9914 244° Southwest 299 344 11,200 -1,500 Descending Houston Center
02:44PM 29.8317 -98.0172 244° Southwest 288 331 10,800 -1,560 Descending Houston Center
02:45PM 29.8039 -98.0831 244° Southwest 296 341 9,600 -1,500 Descending Houston Center
02:46PM 29.7956 -98.1011 242° Southwest 292 336 9,300 -1,500 Descending Houston Center
02:46PM 29.7692 -98.1661 245° Southwest 289 333 8,100 -1,620 Descending Houston Center
02:47PM 29.7614 -98.1847 244° Southwest 288 331 7,700 -1,560 Descending Houston Center
02:47PM 29.7322 -98.2528 244° Southwest 283 326 6,500 -1,620 Descending Houston Center
02:48PM 29.7269 -98.2661 245° Southwest 281 323 6,100 -600 Descending Houston Center
02:48PM 29.6997 -98.3322 245° Southwest 276 318 5,900 -300 Descending Houston Center
02:49PM 29.6972 -98.3514 261° West 277 319 5,800 -780 Descending Houston Center
02:50PM 29.6775 -98.4356 255° West 273 314 5,000 -480 Descending Houston Center
02:50PM 29.6617 -98.4983 254° West 235 270 4,900 -120 Descending Houston Center
02:51PM 29.6592 -98.5100 256° West 218 251 4,900 -1,500 Level Houston Center
02:51PM 29.6300 -98.5528 232° Southwest 202 232 3,400 -1,620 Descending Houston Center
02:52PM 29.6258 -98.5572 223° Southwest 190 219 3,300 -1,080 Descending Houston Center
02:52PM 29.5875 -98.5428 162° South 178 205 2,300 -1,140 Descending Houston Center
02:53PM 29.5819 -98.5383 145° Southeast 164 189 2,200 -1,020 Descending Houston Center
02:54PM 29.5589 -98.5047 128° Southeast 150 173 1,300 -720 Descending Houston Center
02:55PM 29.5358 -98.4747 131° Southeast 133 153 800 -540 Descending Houston Center